KOBE

Details ICAO KOBE (OBE)
Name OKEECHOBEE CO
Region United States
Timezone America/New_York (UTC-5.0)
Plans Departing 7
Arriving 7
Stats Elevation 34 ft / 10 m (AMSL)
Location 27.263334° -80.849306°
Runways 2
Magnetic Variation 6.515° W
Sunrise 2017-12-15 12:07:08 UTC / 2017-12-15 07:07:08 Local
Sunset 2017-12-15 22:32:58 UTC / 2017-12-15 17:32:58 Local
Advertisement - Login to hide

Runways

ID Width Length Bearing (true) Bearing (mag) Surface Threshold Offset Overrun Length
05 150 ft / 46 m 5,066 ft / 1,544 m 43.92° 50.44° Asphalt 0 ft / 0 m 0 ft / 0 m
14 150 ft / 46 m 3,982 ft / 1,214 m 135.46° 141.98° Asphalt 0 ft / 0 m 0 ft / 0 m
23 150 ft / 46 m 5,066 ft / 1,544 m 223.92° 230.44° Asphalt 0 ft / 0 m 0 ft / 0 m
32 150 ft / 46 m 3,982 ft / 1,214 m 315.46° 321.98° Asphalt 0 ft / 0 m 0 ft / 0 m

Map

Weather


0- 5 10 15 20 25 30 35+ Temperature / ° C

Clouds and Precipitation
Forecast for 2017-12-16 06:00 UTC. Updated 14 minutes ago

Ground ~20,000 ft ~40,000 ft Winds

METAR

KOBE 160135Z AUTO 00000KT 10SM CLR 14/13 A3014 RMK AO2

TAF

Not found

Frequencies

Recorded 118.67 MHz ASOS
Unicom 123.00 MHz CTAF/UNICOM
Warning: Do not use this data for real-world aviation or navigation. No guarantee of current accuracy is given.